Temperatura - Umidità - Pioggia orarie del 31-07-2021

Intensità - Direzione vento orarie del 31-07-2021

Dati orari da stazione meteo del 31-07-2021

Nome Stazione Data Ora Temperatura [°C] Umidità [%] Pioggia [mm] Intensità vento[km/h] Direzione vento [°]
Savigliano 30-07-2021 02:00 22.3 79.4 0 3.2 199
Savigliano 30-07-2021 03:00 20.4 82.3 0 4.7 195
Savigliano 30-07-2021 04:00 20.3 82 0 1.1 223
Savigliano 30-07-2021 05:00 21.1 81.5 0 1.4 234
Savigliano 30-07-2021 06:00 20.1 87 0 0.4 168
Savigliano 30-07-2021 07:00 19.9 88.3 0 0.7 190
Savigliano 30-07-2021 08:00 21.2 80 0 1.1 245
Savigliano 30-07-2021 09:00 21.8 79.9 0 2.9 217
Savigliano 30-07-2021 10:00 19.8 86.2 0.4 5 188
Savigliano 30-07-2021 11:00 19.6 88.4 0 4.7 173
Savigliano 30-07-2021 12:00 20.7 82.2 0 5 176
Savigliano 30-07-2021 13:00 26 63.4 0 9.7 162
Savigliano 30-07-2021 14:00 27.8 56.5 0 5.4 152
Savigliano 30-07-2021 15:00 28.3 50.3 0 6.5 115
Savigliano 30-07-2021 16:00 30.1 46.1 0 1.8 131
Savigliano 30-07-2021 17:00 30 51.2 0 2.5 90
Savigliano 30-07-2021 18:00 28.3 60.3 0 8.6 81
Savigliano 30-07-2021 19:00 27.6 62 0 8.6 91
Savigliano 30-07-2021 20:00 27.7 61.9 0 7.9 204
Savigliano 30-07-2021 21:00 25.8 68.5 0 5 286
Savigliano 30-07-2021 22:00 23.6 75.9 0 3.2 293
Savigliano 30-07-2021 23:00 22.3 80.4 0 0 299
Savigliano 31-07-2021 00:00 22.5 82.3 0 6.1 266
Savigliano 31-07-2021 01:00 22.4 82.3 0 5.4 291
Savigliano 31-07-2021 02:00 21.9 82.1 0 2.9 237
Savigliano 31-07-2021 03:00 19.9 85.7 0 6.8 164
Savigliano 31-07-2021 04:00 20 87.5 0 4 167
Savigliano 31-07-2021 05:00 19.6 88.3 0 1.4 89
Savigliano 31-07-2021 06:00 19.8 87.1 0 1.8 258
Savigliano 31-07-2021 07:00 17.6 88.3 0 1.8 239
Savigliano 31-07-2021 08:00 19.5 84.9 0 0.4 245
Savigliano 31-07-2021 09:00 22.1 74.3 0 4 291
Savigliano 31-07-2021 10:00 24.4 71.1 0 2.9 248
Savigliano 31-07-2021 11:00 24.6 70.6 0 6.5 164
Savigliano 31-07-2021 12:00 25.5 70.4 0 10.8 221
Savigliano 31-07-2021 13:00 26 68.5 0 4.3 224
Savigliano 31-07-2021 14:00 25.8 68.7 0 2.2 203
Savigliano 31-07-2021 15:00 20.3 81.6 0 4 130
Savigliano 31-07-2021 16:00 20.1 82.5 0 1.8 116
Savigliano 30-07-2021 10:05 0 0 0.1 0 0
Savigliano 30-07-2021 10:35 0 0 0.7 0 0
Savigliano 30-07-2021 10:40 0 0 0.2 0 0
Savigliano 30-07-2021 10:45 0 0 0.1 0 0
Savigliano 30-07-2021 10:50 0 0 0.1 0 0
Savigliano 31-07-2021 14:05 0 0 1.8 0 0
Savigliano 31-07-2021 14:10 0 0 3.7 0 0
Savigliano 31-07-2021 14:15 0 0 3.4 0 0
Savigliano 31-07-2021 14:20 0 0 1.9 0 0
Savigliano 31-07-2021 14:25 0 0 0.2 0 0
Savigliano 31-07-2021 15:20 0 0 0.6 0 0
Savigliano 30-07-2021 17:20 0 0 0 0 145
Savigliano 31-07-2021 01:40 0 0 0 0 237

Riassuntivo giornaliero del 31-07-2021